Time;durP1;ratioP1;P1;durP2;ratioP2;P2;SDS_P1;SDS_P2;PMS_P1;PMS_P2;Temp;Humidity;BMP_temperature;BMP_pressure;BME280_temperature;BME280_humidity;BME280_pressure;Samples;Min_cycle;Max_cycle;Signal;HPM_P1;HPM_P2
2022/10/26 00:04:51;;;;;;;15.00;9.90;;;;;;;9.83;85.48;98900.75;421103;1292;97483;-40
2022/10/26 00:14:55;;;;;;;16.30;11.30;;;;;;;9.78;85.61;98903.16;420967;1294;108496;-40
2022/10/26 00:24:59;;;;;;;15.20;9.70;;;;;;;9.74;85.72;98909.89;421040;1296;97244;-40
2022/10/26 00:35:02;;;;;;;11.20;9.20;;;;;;;9.62;85.60;98911.74;420957;1294;111154;-41
2022/10/26 00:45:27;;;;;;;13.30;9.80;;;;;;;9.56;85.69;98913.30;420720;1298;109090;-40
2022/10/26 00:55:32;;;;;;;15.60;11.50;;;;;;;9.44;85.87;98914.86;420889;1288;97602;-40
2022/10/26 01:05:39;;;;;;;20.70;13.00;;;;;;;9.42;86.07;98907.61;421136;1298;106701;-40
2022/10/26 01:15:42;;;;;;;17.20;11.50;;;;;;;9.43;86.20;98914.61;423015;1265;97908;-40
2022/10/26 01:26:17;;;;;;;14.80;11.80;;;;;;;9.38;86.21;98914.30;422354;1295;109907;-40
2022/10/26 01:36:20;;;;;;;27.60;12.70;;;;;;;9.41;86.39;98912.69;422335;1295;107561;-41
2022/10/26 01:46:26;;;;;;;20.40;11.30;;;;;;;9.31;86.35;98905.46;422046;1289;97539;-41
2022/10/26 01:56:33;;;;;;;14.20;11.10;;;;;;;9.22;86.32;98907.87;422072;1279;199478;-41
2022/10/26 02:06:42;;;;;;;18.60;12.10;;;;;;;9.21;86.53;98914.13;422400;1295;97893;-41
2022/10/26 02:16:55;;;;;;;17.10;12.10;;;;;;;9.20;86.58;98920.27;422459;1292;109930;-41
2022/10/26 02:27:01;;;;;;;15.50;11.50;;;;;;;9.17;86.70;98920.04;422448;1289;107497;-40
2022/10/26 02:37:05;;;;;;;19.60;13.40;;;;;;;9.18;86.77;98925.84;422339;1280;97586;-41
2022/10/26 02:47:10;;;;;;;14.70;11.60;;;;;;;9.16;86.87;98936.37;422461;1292;107847;-41
2022/10/26 02:57:18;;;;;;;14.60;12.40;;;;;;;9.12;86.76;98936.77;422316;1295;97859;-39
2022/10/26 03:07:21;;;;;;;18.00;12.20;;;;;;;9.14;87.11;98937.52;422637;1295;108908;-40
2022/10/26 03:17:25;;;;;;;14.90;11.00;;;;;;;9.18;86.98;98939.92;422493;1292;108492;-39
2022/10/26 03:37:32;;;;;;;18.70;12.50;;;;;;;9.12;86.98;98946.91;422551;1295;109365;-40
2022/10/26 03:47:41;;;;;;;18.70;13.50;;;;;;;9.09;87.02;98950.49;422606;1295;98006;-40
2022/10/26 03:57:45;;;;;;;20.10;14.20;;;;;;;9.07;87.05;98961.39;422627;1295;109511;-40
2022/10/26 04:17:55;;;;;;;17.40;13.20;;;;;;;8.95;87.00;98962.90;422207;1295;97459;-41
2022/10/26 04:27:59;;;;;;;23.90;14.80;;;;;;;8.93;87.17;98956.14;422322;1295;108991;-39
2022/10/26 04:38:05;;;;;;;24.30;16.10;;;;;;;8.83;87.00;98953.44;422450;1295;97924;-40
2022/10/26 04:48:10;;;;;;;31.90;22.10;;;;;;;8.69;86.96;98954.67;422415;1295;109211;-41
2022/10/26 04:58:14;;;;;;;25.10;18.50;;;;;;;8.48;86.77;98963.10;422065;1295;108899;-40
2022/10/26 05:08:17;;;;;;;29.50;19.10;;;;;;;8.26;86.75;98966.77;422327;1287;98162;-40
2022/10/26 05:18:21;;;;;;;26.80;19.20;;;;;;;8.03;86.67;98963.27;422518;1295;108215;-40
2022/10/26 05:28:24;;;;;;;33.20;21.70;;;;;;;7.74;86.72;98964.33;422354;1292;98568;-42
2022/10/26 05:38:28;;;;;;;33.90;22.30;;;;;;;7.57;86.79;98982.11;422193;1295;111635;-41
2022/10/26 05:48:31;;;;;;;38.40;24.50;;;;;;;7.56;87.06;98996.74;422249;1295;107431;-40
2022/10/26 05:58:38;;;;;;;41.50;23.60;;;;;;;7.54;86.91;98998.33;422529;1295;97526;-40
2022/10/26 06:08:42;;;;;;;32.40;22.50;;;;;;;7.66;87.28;99005.16;422617;1295;107826;-41
2022/10/26 06:18:46;;;;;;;33.20;21.90;;;;;;;7.84;87.35;99008.69;422144;1291;97521;-41
2022/10/26 06:39:01;;;;;;;50.20;32.70;;;;;;;8.52;87.66;99020.71;422349;1295;107501;-41
2022/10/26 06:49:07;;;;;;;51.90;33.40;;;;;;;8.75;87.50;99032.28;422482;1292;97480;-41
2022/10/26 06:59:13;;;;;;;40.10;26.70;;;;;;;9.05;87.74;99036.19;422287;1295;109074;-41
2022/10/26 07:09:16;;;;;;;40.00;28.00;;;;;;;10.08;88.33;99042.46;422379;1292;107830;-41
2022/10/26 07:19:20;;;;;;;31.90;23.50;;;;;;;11.44;88.33;99045.33;422445;1296;97877;-41
2022/10/26 07:29:25;;;;;;;24.00;18.80;;;;;;;13.36;88.67;99041.41;422537;1288;108486;-41
2022/10/26 07:59:37;;;;;;;31.80;22.40;;;;;;;16.42;85.67;99048.77;422252;1294;96652;-42
2022/10/26 08:09:40;;;;;;;26.40;20.10;;;;;;;16.41;84.35;99049.41;422598;1295;97490;-40
2022/10/26 08:29:47;;;;;;;29.10;19.00;;;;;;;15.89;82.91;99053.33;422382;1296;107805;-39
2022/10/26 08:39:50;;;;;;;31.10;22.20;;;;;;;15.99;82.85;99059.55;422717;1296;97867;-40
2022/10/26 08:50:01;;;;;;;18.70;13.70;;;;;;;16.09;82.33;99064.07;422419;1295;109924;-40
2022/10/26 09:00:06;;;;;;;21.20;14.60;;;;;;;16.32;82.25;99065.67;422049;1285;109472;-40
2022/10/26 09:10:15;;;;;;;13.60;8.90;;;;;;;16.53;81.80;99057.48;422124;1288;97073;-39
2022/10/26 09:40:38;;;;;;;9.10;4.50;;;;;;;17.04;80.62;99075.10;422548;1289;109911;-40
2022/10/26 09:50:47;;;;;;;5.20;3.80;;;;;;;17.15;79.98;99076.54;422593;1294;108173;-40
2022/10/26 10:00:52;;;;;;;4.30;3.10;;;;;;;17.18;79.35;99079.27;422559;1281;117683;-40
2022/10/26 10:10:56;;;;;;;4.80;3.20;;;;;;;17.23;78.58;99081.79;422371;1296;109996;-42
2022/10/26 10:20:59;;;;;;;5.10;2.60;;;;;;;17.29;77.96;99080.06;422466;1301;97492;-41
2022/10/26 10:31:18;;;;;;;8.60;2.60;;;;;;;17.32;77.62;99080.02;422360;1295;97902;-40
2022/10/26 10:41:25;;;;;;;2.90;2.50;;;;;;;17.47;76.96;99075.57;422328;1299;110823;-40
2022/10/26 10:51:30;;;;;;;5.80;2.90;;;;;;;17.46;76.76;99078.55;422596;1285;107208;-40
2022/10/26 11:01:34;;;;;;;6.40;2.10;;;;;;;17.66;76.13;99079.95;422166;1301;97957;-40
2022/10/26 11:11:44;;;;;;;4.40;1.60;;;;;;;17.80;74.93;99078.19;422268;1296;97521;-40
2022/10/26 11:21:50;;;;;;;3.60;1.70;;;;;;;17.84;74.41;99080.81;422300;1296;107795;-41
2022/10/26 11:31:53;;;;;;;5.30;2.10;;;;;;;17.77;74.21;99083.80;421936;1296;97496;-41
2022/10/26 11:42:01;;;;;;;6.30;2.60;;;;;;;17.87;73.86;99080.00;422672;1287;109914;-41
2022/10/26 11:52:09;;;;;;;6.30;2.10;;;;;;;17.70;73.41;99080.77;422708;1294;107845;-40
2022/10/26 12:02:17;;;;;;;4.00;1.80;;;;;;;17.82;73.26;99075.40;422370;1291;97001;-40
2022/10/26 12:12:22;;;;;;;2.10;1.60;;;;;;;17.87;72.72;99074.39;422888;1290;110923;-40
2022/10/26 12:22:30;;;;;;;3.00;1.80;;;;;;;17.85;72.27;99071.17;422860;1296;97481;-40
2022/10/26 12:32:47;;;;;;;;;;;;;;;17.81;71.76;99069.09;422745;1296;97905;-40
2022/10/26 12:42:52;;;;;;;4.20;1.70;;;;;;;17.80;71.60;99072.79;422408;1295;111271;-41
2022/10/26 12:52:55;;;;;;;4.80;2.20;;;;;;;17.73;70.84;99068.80;422406;1295;97490;-42
2022/10/26 13:03:04;;;;;;;7.60;2.30;;;;;;;17.77;70.47;99068.60;422138;1287;97905;-42
2022/10/26 13:13:08;;;;;;;6.40;1.70;;;;;;;17.55;70.07;99064.36;422674;1294;110087;-40
2022/10/26 13:23:20;;;;;;;2.40;1.70;;;;;;;17.48;70.00;99057.02;422532;1292;97502;-40
2022/10/26 13:43:38;;;;;;;5.10;2.00;;;;;;;17.20;69.63;99066.65;422381;1296;111113;-42
2022/10/26 13:53:49;;;;;;;6.60;1.90;;;;;;;17.08;69.46;99070.09;422039;1296;361201;-41
2022/10/26 14:03:53;;;;;;;7.80;2.00;;;;;;;16.82;69.20;99072.11;422284;1296;97844;-40
2022/10/26 14:13:56;;;;;;;7.30;2.40;;;;;;;16.58;69.25;99076.42;422294;1288;97507;-40
2022/10/26 14:24:06;;;;;;;2.00;1.20;;;;;;;16.42;69.26;99079.05;422331;1288;108342;-41
2022/10/26 14:34:12;;;;;;;6.60;4.00;;;;;;;16.26;69.21;99080.95;421920;1296;97985;-43
2022/10/26 14:44:19;;;;;;;6.10;3.50;;;;;;;16.08;69.38;99087.86;422204;1295;108802;-41
2022/10/26 14:54:26;;;;;;;9.50;4.30;;;;;;;15.89;69.38;99089.88;422270;1289;107894;-41
2022/10/26 15:04:32;;;;;;;11.00;6.20;;;;;;;15.69;69.46;99100.51;422754;1296;97901;-41
2022/10/26 15:14:35;;;;;;;11.20;5.30;;;;;;;15.45;69.53;99102.83;422230;1295;110391;-41
2022/10/26 15:24:39;;;;;;;9.60;5.00;;;;;;;15.09;69.91;99107.02;421968;1296;108756;-41
2022/10/26 15:34:47;;;;;;;7.90;4.90;;;;;;;14.55;70.30;99112.19;422149;1296;97494;-42
2022/10/26 15:44:52;;;;;;;11.30;5.80;;;;;;;14.02;70.96;99120.34;421900;1295;110419;-41
2022/10/26 15:54:56;;;;;;;10.40;5.60;;;;;;;13.45;71.34;99128.42;421905;1289;107699;-41
2022/10/26 16:04:59;;;;;;;16.10;4.50;;;;;;;12.88;71.90;99136.90;422322;1288;97898;-41
2022/10/26 16:15:02;;;;;;;17.70;6.20;;;;;;;12.51;72.33;99140.49;422038;1296;111813;-41
2022/10/26 16:25:09;;;;;;;14.40;8.40;;;;;;;12.13;72.69;99144.30;421967;1296;108590;-42
2022/10/26 16:35:13;;;;;;;17.10;10.60;;;;;;;11.87;73.44;99152.44;421970;1288;97523;-41
2022/10/26 16:45:15;;;;;;;36.40;18.70;;;;;;;11.74;73.82;99163.75;421809;1288;108186;-40
2022/10/26 16:55:23;;;;;;;44.60;25.00;;;;;;;11.48;74.26;99169.20;421652;1288;98609;-41
2022/10/26 17:05:26;;;;;;;57.40;33.10;;;;;;;11.27;74.63;99173.92;422164;1295;110308;-41
2022/10/26 17:15:32;;;;;;;81.30;45.40;;;;;;;11.12;74.81;99183.33;421883;1298;109297;-44
2022/10/26 17:35:40;;;;;;;87.20;49.30;;;;;;;10.79;75.30;99192.92;421711;1296;107552;-42
2022/10/26 17:45:44;;;;;;;133.40;75.60;;;;;;;10.64;75.83;99197.00;421862;1288;97914;-41
2022/10/26 17:55:48;;;;;;;129.80;76.20;;;;;;;10.40;76.09;99210.43;421674;1295;110716;-41
2022/10/26 18:05:52;;;;;;;122.80;69.50;;;;;;;10.20;76.25;99218.65;421875;1291;97899;-41
2022/10/26 18:15:55;;;;;;;139.40;76.90;;;;;;;10.02;76.33;99229.35;422007;1295;97873;-40
2022/10/26 18:26:02;;;;;;;143.10;84.70;;;;;;;9.95;76.98;99235.35;422030;1298;110405;-41
2022/10/26 18:36:13;;;;;;;174.20;95.40;;;;;;;10.01;77.25;99236.71;422052;1296;108100;-41
2022/10/26 18:46:22;;;;;;;189.30;108.70;;;;;;;9.89;77.31;99245.34;422051;1296;97903;-40
2022/10/26 18:56:26;;;;;;;174.80;104.00;;;;;;;9.74;77.57;99250.57;421555;1292;106999;-41
2022/10/26 19:06:32;;;;;;;178.20;102.00;;;;;;;9.74;78.02;99259.17;422083;1296;97263;-41
2022/10/26 19:16:37;;;;;;;186.90;108.70;;;;;;;9.74;78.29;99265.40;421845;1295;109887;-41
2022/10/26 19:26:51;;;;;;;182.10;105.60;;;;;;;9.64;78.52;99275.85;422143;1298;107465;-40
2022/10/26 19:36:54;;;;;;;205.20;110.10;;;;;;;9.53;78.68;99279.34;421889;1290;97937;-41
2022/10/26 19:46:58;;;;;;;200.40;112.20;;;;;;;9.43;78.93;99298.56;421964;1298;107108;-40
2022/10/26 19:57:02;;;;;;;190.30;106.30;;;;;;;9.31;79.27;99305.85;422058;1297;97909;-40
2022/10/26 20:07:05;;;;;;;195.10;112.90;;;;;;;9.26;79.32;99315.33;422417;1296;111028;-40
2022/10/26 20:17:09;;;;;;;178.00;103.50;;;;;;;9.14;79.54;99323.76;421757;1297;108421;-40
2022/10/26 20:27:13;;;;;;;144.50;84.50;;;;;;;9.01;79.63;99321.70;422210;1288;97863;-41
2022/10/26 20:37:17;;;;;;;138.80;81.40;;;;;;;8.91;79.94;99326.59;421992;1296;106930;-39
2022/10/26 20:47:22;;;;;;;123.70;73.50;;;;;;;8.88;80.03;99333.38;422099;1294;96923;-40
2022/10/26 20:57:28;;;;;;;126.10;78.10;;;;;;;8.86;80.24;99338.11;422186;1285;109391;-41
2022/10/26 21:07:32;;;;;;;124.50;75.80;;;;;;;8.74;80.32;99347.02;421382;1296;109715;-41
2022/10/26 21:17:36;;;;;;;120.90;70.80;;;;;;;8.56;80.54;99348.60;421850;1281;97610;-43
2022/10/26 21:27:39;;;;;;;128.80;70.80;;;;;;;8.47;80.69;99354.61;421771;1298;107480;-42
2022/10/26 21:37:43;;;;;;;104.60;64.80;;;;;;;8.39;80.91;99356.16;421659;1289;97492;-41
2022/10/26 21:47:50;;;;;;;116.50;65.20;;;;;;;8.32;81.14;99351.88;421838;1296;111686;-40
2022/10/26 21:57:54;;;;;;;104.60;62.50;;;;;;;8.21;81.20;99354.12;422044;1298;107388;-42
2022/10/26 22:07:58;;;;;;;101.00;58.80;;;;;;;8.15;81.60;99364.08;421980;1282;97874;-41
2022/10/26 22:18:01;;;;;;;100.70;59.50;;;;;;;8.13;81.66;99369.05;421860;1289;108136;-41
2022/10/26 22:28:04;;;;;;;101.70;59.60;;;;;;;8.07;81.65;99379.77;421802;1296;97528;-41
2022/10/26 22:38:07;;;;;;;99.70;55.90;;;;;;;8.03;81.78;99385.16;421776;1296;110674;-40
2022/10/26 22:48:11;;;;;;;96.00;55.80;;;;;;;8.03;81.83;99384.50;421618;1288;109336;-41
2022/10/26 22:58:15;;;;;;;85.90;50.10;;;;;;;7.97;81.87;99385.53;421819;1282;97909;-42
2022/10/26 23:08:18;;;;;;;74.40;45.60;;;;;;;7.95;82.08;99388.77;421742;1289;107943;-41
2022/10/26 23:18:22;;;;;;;79.50;47.50;;;;;;;7.90;82.14;99385.63;421721;1296;97877;-42
2022/10/26 23:28:26;;;;;;;82.20;50.20;;;;;;;7.85;82.21;99382.02;421365;1296;110751;-41
2022/10/26 23:38:30;;;;;;;81.70;44.70;;;;;;;7.77;82.23;99380.87;421702;1297;106690;-41
2022/10/26 23:48:34;;;;;;;78.60;47.40;;;;;;;7.68;82.27;99376.61;421841;1296;97912;-41
2022/10/26 23:58:37;;;;;;;84.70;47.40;;;;;;;7.58;82.43;99375.70;421814;1298;109417;-41
